sensor_id;sensor_type;location;lat;lon;timestamp;temperature;humidity
5226;DHT22;2632;51.666;7.146;2023-04-25T00:01:16;7.60;99.90
5226;DHT22;2632;51.666;7.146;2023-04-25T00:03:43;7.60;99.90
5226;DHT22;2632;51.666;7.146;2023-04-25T00:06:10;7.70;99.90
5226;DHT22;2632;51.666;7.146;2023-04-25T00:08:36;7.70;99.90
5226;DHT22;2632;51.666;7.146;2023-04-25T00:11:03;7.60;99.90
5226;DHT22;2632;51.666;7.146;2023-04-25T00:13:30;7.60;99.90
5226;DHT22;2632;51.666;7.146;2023-04-25T00:15:56;7.70;99.90
5226;DHT22;2632;51.666;7.146;2023-04-25T00:18:24;7.70;99.90
5226;DHT22;2632;51.666;7.146;2023-04-25T00:20:51;7.60;99.90
5226;DHT22;2632;51.666;7.146;2023-04-25T00:23:17;7.70;99.90
5226;DHT22;2632;51.666;7.146;2023-04-25T00:25:45;7.70;99.90
5226;DHT22;2632;51.666;7.146;2023-04-25T00:28:13;7.80;99.90
5226;DHT22;2632;51.666;7.146;2023-04-25T00:30:40;7.70;99.90
5226;DHT22;2632;51.666;7.146;2023-04-25T00:33:07;7.70;99.90
5226;DHT22;2632;51.666;7.146;2023-04-25T00:35:35;7.70;99.90
5226;DHT22;2632;51.666;7.146;2023-04-25T00:38:01;7.80;99.90
5226;DHT22;2632;51.666;7.146;2023-04-25T00:40:28;7.80;99.90
5226;DHT22;2632;51.666;7.146;2023-04-25T00:42:55;7.80;99.90
5226;DHT22;2632;51.666;7.146;2023-04-25T00:45:21;7.80;99.90
5226;DHT22;2632;51.666;7.146;2023-04-25T00:47:53;7.70;99.90
5226;DHT22;2632;51.666;7.146;2023-04-25T00:50:20;7.70;99.90
5226;DHT22;2632;51.666;7.146;2023-04-25T00:52:47;7.70;99.90
5226;DHT22;2632;51.666;7.146;2023-04-25T00:55:14;7.70;99.90
5226;DHT22;2632;51.666;7.146;2023-04-25T00:57:42;7.70;99.90
5226;DHT22;2632;51.666;7.146;2023-04-25T01:00:09;7.70;99.90
5226;DHT22;2632;51.666;7.146;2023-04-25T01:02:37;7.70;99.90
5226;DHT22;2632;51.666;7.146;2023-04-25T01:05:04;7.70;99.90
5226;DHT22;2632;51.666;7.146;2023-04-25T01:07:31;7.80;99.90
5226;DHT22;2632;51.666;7.146;2023-04-25T01:09:57;7.70;99.90
5226;DHT22;2632;51.666;7.146;2023-04-25T01:12:24;7.70;99.90
5226;DHT22;2632;51.666;7.146;2023-04-25T01:14:51;7.80;99.90
5226;DHT22;2632;51.666;7.146;2023-04-25T01:17:18;7.70;99.90
5226;DHT22;2632;51.666;7.146;2023-04-25T01:19:46;7.80;99.90
5226;DHT22;2632;51.666;7.146;2023-04-25T01:22:14;7.80;99.90
5226;DHT22;2632;51.666;7.146;2023-04-25T01:24:41;7.80;99.90
5226;DHT22;2632;51.666;7.146;2023-04-25T01:27:08;7.80;99.90
5226;DHT22;2632;51.666;7.146;2023-04-25T01:29:35;7.80;99.90
5226;DHT22;2632;51.666;7.146;2023-04-25T01:32:03;7.80;99.90
5226;DHT22;2632;51.666;7.146;2023-04-25T01:34:31;7.80;99.90
5226;DHT22;2632;51.666;7.146;2023-04-25T01:36:59;7.80;99.90
5226;DHT22;2632;51.666;7.146;2023-04-25T01:39:26;7.90;99.90
5226;DHT22;2632;51.666;7.146;2023-04-25T01:41:53;7.90;99.90
5226;DHT22;2632;51.666;7.146;2023-04-25T01:44:19;7.90;99.90
5226;DHT22;2632;51.666;7.146;2023-04-25T01:46:46;7.80;99.90
5226;DHT22;2632;51.666;7.146;2023-04-25T01:49:13;7.80;99.90
5226;DHT22;2632;51.666;7.146;2023-04-25T01:51:40;7.80;99.90
5226;DHT22;2632;51.666;7.146;2023-04-25T01:54:07;7.80;99.90
5226;DHT22;2632;51.666;7.146;2023-04-25T01:56:37;7.80;99.90
5226;DHT22;2632;51.666;7.146;2023-04-25T01:59:04;7.90;99.90
5226;DHT22;2632;51.666;7.146;2023-04-25T02:01:32;7.80;99.90
5226;DHT22;2632;51.666;7.146;2023-04-25T02:03:59;7.80;99.90
5226;DHT22;2632;51.666;7.146;2023-04-25T02:06:26;7.90;99.90
5226;DHT22;2632;51.666;7.146;2023-04-25T02:08:53;7.80;99.90
5226;DHT22;2632;51.666;7.146;2023-04-25T02:11:19;7.90;99.90
5226;DHT22;2632;51.666;7.146;2023-04-25T02:13:46;7.90;99.90
5226;DHT22;2632;51.666;7.146;2023-04-25T02:16:13;7.70;99.90
5226;DHT22;2632;51.666;7.146;2023-04-25T02:18:40;7.80;99.90
5226;DHT22;2632;51.666;7.146;2023-04-25T02:21:06;7.80;99.90
5226;DHT22;2632;51.666;7.146;2023-04-25T02:23:33;7.80;99.90
5226;DHT22;2632;51.666;7.146;2023-04-25T02:26:00;7.80;99.90
5226;DHT22;2632;51.666;7.146;2023-04-25T02:28:26;7.80;99.90
5226;DHT22;2632;51.666;7.146;2023-04-25T02:30:53;7.70;99.90
5226;DHT22;2632;51.666;7.146;2023-04-25T02:33:20;7.70;99.90
5226;DHT22;2632;51.666;7.146;2023-04-25T02:35:47;7.70;99.90
5226;DHT22;2632;51.666;7.146;2023-04-25T02:38:14;7.70;99.90
5226;DHT22;2632;51.666;7.146;2023-04-25T02:40:41;7.70;99.90
5226;DHT22;2632;51.666;7.146;2023-04-25T02:43:07;7.70;99.90
5226;DHT22;2632;51.666;7.146;2023-04-25T02:45:34;7.60;99.90
5226;DHT22;2632;51.666;7.146;2023-04-25T02:48:03;7.70;99.90
5226;DHT22;2632;51.666;7.146;2023-04-25T02:50:30;7.70;99.90
5226;DHT22;2632;51.666;7.146;2023-04-25T02:52:56;7.70;99.90
5226;DHT22;2632;51.666;7.146;2023-04-25T02:55:23;7.70;99.90
5226;DHT22;2632;51.666;7.146;2023-04-25T02:57:53;7.70;99.90
5226;DHT22;2632;51.666;7.146;2023-04-25T03:00:21;7.70;99.90
5226;DHT22;2632;51.666;7.146;2023-04-25T03:02:49;7.70;99.90
5226;DHT22;2632;51.666;7.146;2023-04-25T03:05:15;7.70;99.90
5226;DHT22;2632;51.666;7.146;2023-04-25T03:07:43;7.70;99.90
5226;DHT22;2632;51.666;7.146;2023-04-25T03:10:11;7.70;99.90
5226;DHT22;2632;51.666;7.146;2023-04-25T03:12:38;7.60;99.90
5226;DHT22;2632;51.666;7.146;2023-04-25T03:15:05;7.50;99.90
5226;DHT22;2632;51.666;7.146;2023-04-25T03:17:32;7.50;99.90
5226;DHT22;2632;51.666;7.146;2023-04-25T03:19:58;7.50;99.90
5226;DHT22;2632;51.666;7.146;2023-04-25T03:22:25;7.50;99.90
5226;DHT22;2632;51.666;7.146;2023-04-25T03:24:52;7.50;99.90
5226;DHT22;2632;51.666;7.146;2023-04-25T03:27:18;7.60;99.90
5226;DHT22;2632;51.666;7.146;2023-04-25T03:29:45;7.60;99.90
5226;DHT22;2632;51.666;7.146;2023-04-25T03:32:11;7.50;99.90
5226;DHT22;2632;51.666;7.146;2023-04-25T03:34:38;7.40;99.90
5226;DHT22;2632;51.666;7.146;2023-04-25T03:37:05;7.30;99.90
5226;DHT22;2632;51.666;7.146;2023-04-25T03:39:31;6.90;99.90
5226;DHT22;2632;51.666;7.146;2023-04-25T03:41:58;6.90;99.90
5226;DHT22;2632;51.666;7.146;2023-04-25T03:44:24;7.00;99.90
5226;DHT22;2632;51.666;7.146;2023-04-25T03:46:51;7.00;99.90
5226;DHT22;2632;51.666;7.146;2023-04-25T03:49:18;7.00;99.90
5226;DHT22;2632;51.666;7.146;2023-04-25T03:51:45;7.00;99.90
5226;DHT22;2632;51.666;7.146;2023-04-25T03:54:11;7.00;99.90
5226;DHT22;2632;51.666;7.146;2023-04-25T03:56:38;6.90;99.90
5226;DHT22;2632;51.666;7.146;2023-04-25T03:59:05;6.90;99.90
5226;DHT22;2632;51.666;7.146;2023-04-25T04:01:31;6.80;99.90
5226;DHT22;2632;51.666;7.146;2023-04-25T04:03:58;6.80;99.90
5226;DHT22;2632;51.666;7.146;2023-04-25T04:06:25;6.80;99.90
5226;DHT22;2632;51.666;7.146;2023-04-25T04:08:52;6.80;99.90
5226;DHT22;2632;51.666;7.146;2023-04-25T04:11:18;6.80;99.90
5226;DHT22;2632;51.666;7.146;2023-04-25T04:13:45;6.80;99.90
5226;DHT22;2632;51.666;7.146;2023-04-25T04:16:11;6.70;99.90
5226;DHT22;2632;51.666;7.146;2023-04-25T04:18:38;6.70;99.90
5226;DHT22;2632;51.666;7.146;2023-04-25T04:21:05;6.70;99.90
5226;DHT22;2632;51.666;7.146;2023-04-25T04:23:31;6.60;99.90
5226;DHT22;2632;51.666;7.146;2023-04-25T04:25:58;6.60;99.90
5226;DHT22;2632;51.666;7.146;2023-04-25T04:28:24;6.70;99.90
5226;DHT22;2632;51.666;7.146;2023-04-25T04:30:53;6.70;99.90
5226;DHT22;2632;51.666;7.146;2023-04-25T04:33:19;6.60;99.90
5226;DHT22;2632;51.666;7.146;2023-04-25T04:35:46;6.60;99.90
5226;DHT22;2632;51.666;7.146;2023-04-25T04:38:13;6.50;99.90
5226;DHT22;2632;51.666;7.146;2023-04-25T04:40:42;6.60;99.90
5226;DHT22;2632;51.666;7.146;2023-04-25T04:43:12;6.60;99.90
5226;DHT22;2632;51.666;7.146;2023-04-25T04:45:39;6.50;99.90
5226;DHT22;2632;51.666;7.146;2023-04-25T04:48:06;6.50;99.90
5226;DHT22;2632;51.666;7.146;2023-04-25T04:50:33;6.60;99.90
5226;DHT22;2632;51.666;7.146;2023-04-25T04:53:01;6.60;99.90
5226;DHT22;2632;51.666;7.146;2023-04-25T04:55:28;6.70;99.90
5226;DHT22;2632;51.666;7.146;2023-04-25T04:57:54;6.70;99.90
5226;DHT22;2632;51.666;7.146;2023-04-25T05:00:21;6.70;99.90
5226;DHT22;2632;51.666;7.146;2023-04-25T05:02:48;6.60;99.90
5226;DHT22;2632;51.666;7.146;2023-04-25T05:05:15;6.60;99.90
5226;DHT22;2632;51.666;7.146;2023-04-25T05:07:42;6.70;99.90
5226;DHT22;2632;51.666;7.146;2023-04-25T05:10:08;6.70;99.90
5226;DHT22;2632;51.666;7.146;2023-04-25T05:12:35;6.80;99.90
5226;DHT22;2632;51.666;7.146;2023-04-25T05:15:03;6.90;99.90
5226;DHT22;2632;51.666;7.146;2023-04-25T05:17:29;6.90;99.90
5226;DHT22;2632;51.666;7.146;2023-04-25T05:19:56;6.90;99.90
5226;DHT22;2632;51.666;7.146;2023-04-25T05:22:23;6.90;99.90
5226;DHT22;2632;51.666;7.146;2023-04-25T05:24:50;7.00;99.90
5226;DHT22;2632;51.666;7.146;2023-04-25T05:27:20;7.00;99.90
5226;DHT22;2632;51.666;7.146;2023-04-25T05:29:47;7.10;99.90
5226;DHT22;2632;51.666;7.146;2023-04-25T05:32:14;7.00;99.90
5226;DHT22;2632;51.666;7.146;2023-04-25T05:34:40;7.10;99.90
5226;DHT22;2632;51.666;7.146;2023-04-25T05:37:08;7.20;99.90
5226;DHT22;2632;51.666;7.146;2023-04-25T05:39:35;7.20;99.90
5226;DHT22;2632;51.666;7.146;2023-04-25T05:42:01;7.30;99.90
5226;DHT22;2632;51.666;7.146;2023-04-25T05:44:28;7.30;99.90
5226;DHT22;2632;51.666;7.146;2023-04-25T05:46:55;7.30;99.90
5226;DHT22;2632;51.666;7.146;2023-04-25T05:49:21;7.30;99.90
5226;DHT22;2632;51.666;7.146;2023-04-25T05:51:48;7.30;99.90
5226;DHT22;2632;51.666;7.146;2023-04-25T05:54:15;7.40;99.90
5226;DHT22;2632;51.666;7.146;2023-04-25T05:56:41;7.50;99.90
5226;DHT22;2632;51.666;7.146;2023-04-25T05:59:08;7.60;99.90
5226;DHT22;2632;51.666;7.146;2023-04-25T06:01:34;7.60;99.90
5226;DHT22;2632;51.666;7.146;2023-04-25T06:04:01;7.80;99.90
5226;DHT22;2632;51.666;7.146;2023-04-25T06:06:28;7.80;99.90
5226;DHT22;2632;51.666;7.146;2023-04-25T06:08:55;8.10;99.90
5226;DHT22;2632;51.666;7.146;2023-04-25T06:11:22;8.60;99.90
5226;DHT22;2632;51.666;7.146;2023-04-25T06:13:48;8.90;99.90
5226;DHT22;2632;51.666;7.146;2023-04-25T06:16:15;8.70;99.90
5226;DHT22;2632;51.666;7.146;2023-04-25T06:18:42;8.50;99.90
5226;DHT22;2632;51.666;7.146;2023-04-25T06:21:09;8.40;99.90
5226;DHT22;2632;51.666;7.146;2023-04-25T06:23:35;8.30;99.90
5226;DHT22;2632;51.666;7.146;2023-04-25T06:26:02;8.30;99.90
5226;DHT22;2632;51.666;7.146;2023-04-25T06:28:29;8.20;99.90
5226;DHT22;2632;51.666;7.146;2023-04-25T06:30:56;8.20;99.90
5226;DHT22;2632;51.666;7.146;2023-04-25T06:33:23;8.20;99.90
5226;DHT22;2632;51.666;7.146;2023-04-25T06:35:50;8.10;99.90
5226;DHT22;2632;51.666;7.146;2023-04-25T06:38:17;8.00;99.90
5226;DHT22;2632;51.666;7.146;2023-04-25T06:40:44;8.00;99.90
5226;DHT22;2632;51.666;7.146;2023-04-25T06:43:10;8.00;99.90
5226;DHT22;2632;51.666;7.146;2023-04-25T06:45:37;8.00;99.90
5226;DHT22;2632;51.666;7.146;2023-04-25T06:48:04;8.10;99.90
5226;DHT22;2632;51.666;7.146;2023-04-25T06:50:30;8.10;99.90
5226;DHT22;2632;51.666;7.146;2023-04-25T06:52:57;8.20;99.90
5226;DHT22;2632;51.666;7.146;2023-04-25T06:55:23;8.30;99.90
5226;DHT22;2632;51.666;7.146;2023-04-25T06:57:50;8.40;99.90
5226;DHT22;2632;51.666;7.146;2023-04-25T07:00:17;8.50;99.90
5226;DHT22;2632;51.666;7.146;2023-04-25T07:02:44;8.50;99.90
5226;DHT22;2632;51.666;7.146;2023-04-25T07:05:11;8.50;99.90
5226;DHT22;2632;51.666;7.146;2023-04-25T07:07:38;8.70;99.90
5226;DHT22;2632;51.666;7.146;2023-04-25T07:10:05;8.90;99.90
5226;DHT22;2632;51.666;7.146;2023-04-25T07:12:32;9.00;99.90
5226;DHT22;2632;51.666;7.146;2023-04-25T07:14:58;9.10;99.90
5226;DHT22;2632;51.666;7.146;2023-04-25T07:17:25;10.40;99.90
5226;DHT22;2632;51.666;7.146;2023-04-25T07:19:52;9.40;99.90
5226;DHT22;2632;51.666;7.146;2023-04-25T07:22:18;9.50;99.90
5226;DHT22;2632;51.666;7.146;2023-04-25T07:24:45;9.60;99.90
5226;DHT22;2632;51.666;7.146;2023-04-25T07:27:15;9.60;99.90
5226;DHT22;2632;51.666;7.146;2023-04-25T07:29:41;9.70;99.90
5226;DHT22;2632;51.666;7.146;2023-04-25T07:32:08;9.90;99.90
5226;DHT22;2632;51.666;7.146;2023-04-25T07:34:36;9.70;99.90
5226;DHT22;2632;51.666;7.146;2023-04-25T07:37:05;9.50;99.90
5226;DHT22;2632;51.666;7.146;2023-04-25T07:39:32;9.60;99.90
5226;DHT22;2632;51.666;7.146;2023-04-25T07:41:58;9.80;99.90
5226;DHT22;2632;51.666;7.146;2023-04-25T07:44:25;10.00;99.90
5226;DHT22;2632;51.666;7.146;2023-04-25T07:46:52;10.00;99.90
5226;DHT22;2632;51.666;7.146;2023-04-25T07:49:18;10.60;99.90
5226;DHT22;2632;51.666;7.146;2023-04-25T07:51:45;11.10;99.90
5226;DHT22;2632;51.666;7.146;2023-04-25T07:54:15;11.20;99.30
5226;DHT22;2632;51.666;7.146;2023-04-25T07:56:45;11.10;99.90
5226;DHT22;2632;51.666;7.146;2023-04-25T07:59:19;10.80;99.90
5226;DHT22;2632;51.666;7.146;2023-04-25T08:01:45;11.10;99.00
5226;DHT22;2632;51.666;7.146;2023-04-25T08:04:12;11.30;99.60
5226;DHT22;2632;51.666;7.146;2023-04-25T08:06:39;11.50;98.90
5226;DHT22;2632;51.666;7.146;2023-04-25T08:09:06;11.70;97.90
5226;DHT22;2632;51.666;7.146;2023-04-25T08:11:35;12.10;93.00
5226;DHT22;2632;51.666;7.146;2023-04-25T08:14:02;12.20;93.90
5226;DHT22;2632;51.666;7.146;2023-04-25T08:16:29;13.90;89.80
5226;DHT22;2632;51.666;7.146;2023-04-25T08:18:56;14.30;83.80
5226;DHT22;2632;51.666;7.146;2023-04-25T08:21:23;14.70;79.00
5226;DHT22;2632;51.666;7.146;2023-04-25T08:23:49;14.50;73.30
5226;DHT22;2632;51.666;7.146;2023-04-25T08:26:16;14.10;77.00
5226;DHT22;2632;51.666;7.146;2023-04-25T08:28:42;13.30;81.80
5226;DHT22;2632;51.666;7.146;2023-04-25T08:31:12;14.30;78.80
5226;DHT22;2632;51.666;7.146;2023-04-25T08:33:38;16.40;69.90
5226;DHT22;2632;51.666;7.146;2023-04-25T08:36:05;18.50;60.80
5226;DHT22;2632;51.666;7.146;2023-04-25T08:38:32;18.60;55.00
5226;DHT22;2632;51.666;7.146;2023-04-25T08:40:59;17.10;58.10
5226;DHT22;2632;51.666;7.146;2023-04-25T08:43:29;15.60;62.70
5226;DHT22;2632;51.666;7.146;2023-04-25T08:46:00;14.40;66.90
5226;DHT22;2632;51.666;7.146;2023-04-25T08:48:27;13.70;68.30
5226;DHT22;2632;51.666;7.146;2023-04-25T08:50:55;12.90;72.90
5226;DHT22;2632;51.666;7.146;2023-04-25T08:53:26;12.80;79.60
5226;DHT22;2632;51.666;7.146;2023-04-25T08:55:56;12.30;80.80
5226;DHT22;2632;51.666;7.146;2023-04-25T08:58:23;12.20;81.50
5226;DHT22;2632;51.666;7.146;2023-04-25T09:00:50;12.20;80.90
5226;DHT22;2632;51.666;7.146;2023-04-25T09:03:17;12.40;77.70
5226;DHT22;2632;51.666;7.146;2023-04-25T09:05:45;13.50;75.90
5226;DHT22;2632;51.666;7.146;2023-04-25T09:08:11;16.30;65.60
5226;DHT22;2632;51.666;7.146;2023-04-25T09:10:38;17.30;56.90
5226;DHT22;2632;51.666;7.146;2023-04-25T09:13:07;16.70;53.20
5226;DHT22;2632;51.666;7.146;2023-04-25T09:15:50;15.80;57.60
5226;DHT22;2632;51.666;7.146;2023-04-25T09:18:24;15.80;58.80
5226;DHT22;2632;51.666;7.146;2023-04-25T09:21:08;15.20;54.60
5226;DHT22;2632;51.666;7.146;2023-04-25T09:23:44;14.30;59.10
5226;DHT22;2632;51.666;7.146;2023-04-25T09:26:14;13.80;61.00
5226;DHT22;2632;51.666;7.146;2023-04-25T09:28:41;13.30;60.10
5226;DHT22;2632;51.666;7.146;2023-04-25T09:31:20;12.80;62.30
5226;DHT22;2632;51.666;7.146;2023-04-25T09:33:47;13.00;63.70
5226;DHT22;2632;51.666;7.146;2023-04-25T09:36:15;13.90;62.70
5226;DHT22;2632;51.666;7.146;2023-04-25T09:38:43;13.90;60.10
5226;DHT22;2632;51.666;7.146;2023-04-25T09:41:11;13.30;61.50
5226;DHT22;2632;51.666;7.146;2023-04-25T09:43:39;13.00;60.20
5226;DHT22;2632;51.666;7.146;2023-04-25T09:46:10;13.10;62.50
5226;DHT22;2632;51.666;7.146;2023-04-25T09:48:38;12.80;62.50
5226;DHT22;2632;51.666;7.146;2023-04-25T09:51:10;13.30;64.00
5226;DHT22;2632;51.666;7.146;2023-04-25T09:53:39;14.80;58.20
5226;DHT22;2632;51.666;7.146;2023-04-25T09:56:08;13.70;60.60
5226;DHT22;2632;51.666;7.146;2023-04-25T09:58:36;13.10;63.30
5226;DHT22;2632;51.666;7.146;2023-04-25T10:01:08;12.80;61.10
5226;DHT22;2632;51.666;7.146;2023-04-25T10:03:37;12.70;61.40
5226;DHT22;2632;51.666;7.146;2023-04-25T10:06:14;12.60;63.00
5226;DHT22;2632;51.666;7.146;2023-04-25T10:08:43;12.40;63.20
5226;DHT22;2632;51.666;7.146;2023-04-25T10:11:10;11.90;64.90
5226;DHT22;2632;51.666;7.146;2023-04-25T10:13:39;11.90;65.40
5226;DHT22;2632;51.666;7.146;2023-04-25T10:16:06;11.70;64.50
5226;DHT22;2632;51.666;7.146;2023-04-25T10:18:32;11.30;64.20
5226;DHT22;2632;51.666;7.146;2023-04-25T10:21:01;11.10;66.50
5226;DHT22;2632;51.666;7.146;2023-04-25T10:23:30;10.90;71.70
5226;DHT22;2632;51.666;7.146;2023-04-25T10:25:57;10.80;76.70
5226;DHT22;2632;51.666;7.146;2023-04-25T10:28:25;10.60;83.30
5226;DHT22;2632;51.666;7.146;2023-04-25T10:33:36;10.80;88.10
5226;DHT22;2632;51.666;7.146;2023-04-25T10:36:13;10.80;85.50
5226;DHT22;2632;51.666;7.146;2023-04-25T10:38:45;10.80;84.10
5226;DHT22;2632;51.666;7.146;2023-04-25T10:41:13;10.60;87.20
5226;DHT22;2632;51.666;7.146;2023-04-25T10:43:44;10.80;87.60
5226;DHT22;2632;51.666;7.146;2023-04-25T10:48:56;10.60;91.50
5226;DHT22;2632;51.666;7.146;2023-04-25T10:51:31;10.50;90.90
5226;DHT22;2632;51.666;7.146;2023-04-25T10:54:18;10.60;84.40
5226;DHT22;2632;51.666;7.146;2023-04-25T10:56:48;10.70;75.90
5226;DHT22;2632;51.666;7.146;2023-04-25T10:59:17;11.10;73.10
5226;DHT22;2632;51.666;7.146;2023-04-25T11:01:46;11.70;74.00
5226;DHT22;2632;51.666;7.146;2023-04-25T11:04:30;11.90;69.60
5226;DHT22;2632;51.666;7.146;2023-04-25T11:07:05;12.00;64.80
5226;DHT22;2632;51.666;7.146;2023-04-25T11:09:35;12.80;66.40
5226;DHT22;2632;51.666;7.146;2023-04-25T11:12:02;13.10;61.70
5226;DHT22;2632;51.666;7.146;2023-04-25T11:14:29;13.10;61.20
5226;DHT22;2632;51.666;7.146;2023-04-25T11:16:58;13.20;60.10
5226;DHT22;2632;51.666;7.146;2023-04-25T11:19:27;13.40;61.00
5226;DHT22;2632;51.666;7.146;2023-04-25T11:21:56;13.30;60.00
5226;DHT22;2632;51.666;7.146;2023-04-25T11:24:30;13.50;56.00
5226;DHT22;2632;51.666;7.146;2023-04-25T11:27:04;13.90;54.00
5226;DHT22;2632;51.666;7.146;2023-04-25T11:29:33;14.40;54.80
5226;DHT22;2632;51.666;7.146;2023-04-25T11:32:00;15.10;54.20
5226;DHT22;2632;51.666;7.146;2023-04-25T11:34:29;15.40;51.10
5226;DHT22;2632;51.666;7.146;2023-04-25T11:37:00;15.40;50.40
5226;DHT22;2632;51.666;7.146;2023-04-25T11:39:28;15.40;53.50
5226;DHT22;2632;51.666;7.146;2023-04-25T11:41:55;15.50;51.60
5226;DHT22;2632;51.666;7.146;2023-04-25T11:44:22;15.40;49.10
5226;DHT22;2632;51.666;7.146;2023-04-25T11:46:49;15.60;52.60
5226;DHT22;2632;51.666;7.146;2023-04-25T11:49:15;16.00;50.40
5226;DHT22;2632;51.666;7.146;2023-04-25T11:51:46;16.50;48.10
5226;DHT22;2632;51.666;7.146;2023-04-25T11:54:14;16.60;48.80
5226;DHT22;2632;51.666;7.146;2023-04-25T11:56:42;15.80;50.50
5226;DHT22;2632;51.666;7.146;2023-04-25T11:59:09;14.80;49.40
5226;DHT22;2632;51.666;7.146;2023-04-25T12:01:38;14.40;51.90
5226;DHT22;2632;51.666;7.146;2023-04-25T12:04:17;14.20;52.80
5226;DHT22;2632;51.666;7.146;2023-04-25T12:06:46;14.40;53.60
5226;DHT22;2632;51.666;7.146;2023-04-25T12:09:21;14.20;53.70
5226;DHT22;2632;51.666;7.146;2023-04-25T12:11:55;14.40;53.40
5226;DHT22;2632;51.666;7.146;2023-04-25T12:14:26;14.40;53.50
5226;DHT22;2632;51.666;7.146;2023-04-25T12:17:04;14.00;52.60
5226;DHT22;2632;51.666;7.146;2023-04-25T12:19:36;13.80;53.00
5226;DHT22;2632;51.666;7.146;2023-04-25T12:22:07;13.50;52.00
5226;DHT22;2632;51.666;7.146;2023-04-25T12:24:44;13.70;54.60
5226;DHT22;2632;51.666;7.146;2023-04-25T12:27:15;14.20;52.70
5226;DHT22;2632;51.666;7.146;2023-04-25T12:29:55;14.20;50.30
5226;DHT22;2632;51.666;7.146;2023-04-25T12:32:23;14.00;50.70
5226;DHT22;2632;51.666;7.146;2023-04-25T12:34:50;13.90;50.80
5226;DHT22;2632;51.666;7.146;2023-04-25T12:37:16;13.80;51.80
5226;DHT22;2632;51.666;7.146;2023-04-25T12:39:43;14.00;52.80
5226;DHT22;2632;51.666;7.146;2023-04-25T12:42:10;14.30;52.20
5226;DHT22;2632;51.666;7.146;2023-04-25T12:44:40;14.60;50.20
5226;DHT22;2632;51.666;7.146;2023-04-25T12:47:10;14.50;51.30
5226;DHT22;2632;51.666;7.146;2023-04-25T12:49:37;14.60;53.00
5226;DHT22;2632;51.666;7.146;2023-04-25T12:52:03;14.90;50.80
5226;DHT22;2632;51.666;7.146;2023-04-25T12:54:30;15.00;52.20
5226;DHT22;2632;51.666;7.146;2023-04-25T12:56:57;15.80;51.60
5226;DHT22;2632;51.666;7.146;2023-04-25T12:59:24;15.80;50.20
5226;DHT22;2632;51.666;7.146;2023-04-25T13:01:51;15.40;51.30
5226;DHT22;2632;51.666;7.146;2023-04-25T13:04:18;15.60;49.30
5226;DHT22;2632;51.666;7.146;2023-04-25T13:06:46;14.80;52.90
5226;DHT22;2632;51.666;7.146;2023-04-25T13:09:14;13.60;57.70
5226;DHT22;2632;51.666;7.146;2023-04-25T13:11:42;13.10;60.60
5226;DHT22;2632;51.666;7.146;2023-04-25T13:14:08;12.40;62.30
5226;DHT22;2632;51.666;7.146;2023-04-25T13:16:35;12.00;71.80
5226;DHT22;2632;51.666;7.146;2023-04-25T13:19:02;11.80;76.70
5226;DHT22;2632;51.666;7.146;2023-04-25T13:21:30;11.50;75.80
5226;DHT22;2632;51.666;7.146;2023-04-25T13:23:58;11.50;77.60
5226;DHT22;2632;51.666;7.146;2023-04-25T13:26:25;11.80;80.90
5226;DHT22;2632;51.666;7.146;2023-04-25T13:28:52;12.10;76.00
5226;DHT22;2632;51.666;7.146;2023-04-25T13:31:19;12.20;74.60
5226;DHT22;2632;51.666;7.146;2023-04-25T13:33:45;12.50;76.20
5226;DHT22;2632;51.666;7.146;2023-04-25T13:36:12;13.60;70.30
5226;DHT22;2632;51.666;7.146;2023-04-25T13:38:39;14.40;67.60
5226;DHT22;2632;51.666;7.146;2023-04-25T13:41:07;15.20;59.70
5226;DHT22;2632;51.666;7.146;2023-04-25T13:43:34;15.70;61.60
5226;DHT22;2632;51.666;7.146;2023-04-25T13:46:01;16.30;54.50
5226;DHT22;2632;51.666;7.146;2023-04-25T13:48:28;16.20;56.90
5226;DHT22;2632;51.666;7.146;2023-04-25T13:50:54;16.40;56.20
5226;DHT22;2632;51.666;7.146;2023-04-25T13:53:21;16.30;52.00
5226;DHT22;2632;51.666;7.146;2023-04-25T13:55:47;16.80;50.20
5226;DHT22;2632;51.666;7.146;2023-04-25T13:58:14;17.10;47.10
5226;DHT22;2632;51.666;7.146;2023-04-25T14:00:41;17.30;46.00
5226;DHT22;2632;51.666;7.146;2023-04-25T14:03:09;17.50;43.60
5226;DHT22;2632;51.666;7.146;2023-04-25T14:05:36;17.70;42.80
5226;DHT22;2632;51.666;7.146;2023-04-25T14:08:09;17.50;42.60
5226;DHT22;2632;51.666;7.146;2023-04-25T14:10:36;16.50;44.00
5226;DHT22;2632;51.666;7.146;2023-04-25T14:13:05;16.20;44.20
5226;DHT22;2632;51.666;7.146;2023-04-25T14:15:35;15.70;45.20
5226;DHT22;2632;51.666;7.146;2023-04-25T14:18:01;15.70;45.70
5226;DHT22;2632;51.666;7.146;2023-04-25T14:20:29;15.20;45.70
5226;DHT22;2632;51.666;7.146;2023-04-25T14:22:56;15.50;47.50
5226;DHT22;2632;51.666;7.146;2023-04-25T14:25:24;15.40;47.40
5226;DHT22;2632;51.666;7.146;2023-04-25T14:27:51;15.20;46.60
5226;DHT22;2632;51.666;7.146;2023-04-25T14:30:19;14.50;51.30
5226;DHT22;2632;51.666;7.146;2023-04-25T14:32:48;14.00;54.50
5226;DHT22;2632;51.666;7.146;2023-04-25T14:35:15;13.90;56.60
5226;DHT22;2632;51.666;7.146;2023-04-25T14:37:42;14.20;55.40
5226;DHT22;2632;51.666;7.146;2023-04-25T14:40:09;14.40;56.00
5226;DHT22;2632;51.666;7.146;2023-04-25T14:42:37;14.70;54.90
5226;DHT22;2632;51.666;7.146;2023-04-25T14:45:05;14.60;53.30
5226;DHT22;2632;51.666;7.146;2023-04-25T14:47:33;14.20;52.60
5226;DHT22;2632;51.666;7.146;2023-04-25T14:49:59;13.90;53.50
5226;DHT22;2632;51.666;7.146;2023-04-25T14:52:28;13.70;54.10
5226;DHT22;2632;51.666;7.146;2023-04-25T14:54:54;13.50;54.60
5226;DHT22;2632;51.666;7.146;2023-04-25T14:57:21;13.50;55.20
5226;DHT22;2632;51.666;7.146;2023-04-25T14:59:48;13.40;56.00
5226;DHT22;2632;51.666;7.146;2023-04-25T15:02:14;13.20;56.20
5226;DHT22;2632;51.666;7.146;2023-04-25T15:04:41;13.20;55.50
5226;DHT22;2632;51.666;7.146;2023-04-25T15:07:08;13.70;55.70
5226;DHT22;2632;51.666;7.146;2023-04-25T15:09:35;14.40;52.60
5226;DHT22;2632;51.666;7.146;2023-04-25T15:12:02;13.90;52.00
5226;DHT22;2632;51.666;7.146;2023-04-25T15:14:28;13.90;53.30
5226;DHT22;2632;51.666;7.146;2023-04-25T15:16:55;13.90;53.70
5226;DHT22;2632;51.666;7.146;2023-04-25T15:19:22;13.80;53.00
5226;DHT22;2632;51.666;7.146;2023-04-25T15:21:48;13.30;56.90
5226;DHT22;2632;51.666;7.146;2023-04-25T15:24:15;13.00;56.60
5226;DHT22;2632;51.666;7.146;2023-04-25T15:26:42;12.30;61.20
5226;DHT22;2632;51.666;7.146;2023-04-25T15:29:12;12.10;62.80
5226;DHT22;2632;51.666;7.146;2023-04-25T15:31:38;11.80;64.40
5226;DHT22;2632;51.666;7.146;2023-04-25T15:34:05;11.90;65.40
5226;DHT22;2632;51.666;7.146;2023-04-25T15:36:32;11.70;66.90
5226;DHT22;2632;51.666;7.146;2023-04-25T15:38:59;11.50;66.80
5226;DHT22;2632;51.666;7.146;2023-04-25T15:41:25;11.50;68.20
5226;DHT22;2632;51.666;7.146;2023-04-25T15:43:52;11.40;69.00
5226;DHT22;2632;51.666;7.146;2023-04-25T15:46:20;11.30;70.90
5226;DHT22;2632;51.666;7.146;2023-04-25T15:48:49;11.10;72.10
5226;DHT22;2632;51.666;7.146;2023-04-25T15:51:16;10.80;75.50
5226;DHT22;2632;51.666;7.146;2023-04-25T15:53:43;10.90;75.60
5226;DHT22;2632;51.666;7.146;2023-04-25T15:56:09;10.90;84.60
5226;DHT22;2632;51.666;7.146;2023-04-25T15:58:36;11.10;82.60
5226;DHT22;2632;51.666;7.146;2023-04-25T16:01:03;11.10;73.70
5226;DHT22;2632;51.666;7.146;2023-04-25T16:03:32;11.20;74.30
5226;DHT22;2632;51.666;7.146;2023-04-25T16:06:15;11.00;73.30
5226;DHT22;2632;51.666;7.146;2023-04-25T16:08:42;11.10;72.50
5226;DHT22;2632;51.666;7.146;2023-04-25T16:11:08;11.40;72.90
5226;DHT22;2632;51.666;7.146;2023-04-25T16:13:35;11.50;75.40
5226;DHT22;2632;51.666;7.146;2023-04-25T16:16:01;11.60;70.70
5226;DHT22;2632;51.666;7.146;2023-04-25T16:18:28;11.50;71.10